createdAt,value
2023-04-02T00:01:41.272Z,87.20
2023-04-02T00:04:43.115Z,87.39
2023-04-02T00:07:53.842Z,87.57
2023-04-02T00:11:01.223Z,87.44
2023-04-02T00:14:17.874Z,87.45
2023-04-02T00:17:24.693Z,87.76
2023-04-02T00:20:34.339Z,87.59
2023-04-02T00:23:41.983Z,87.71
2023-04-02T00:26:49.554Z,87.64
2023-04-02T00:29:57.077Z,87.49
2023-04-02T00:32:59.376Z,87.73
2023-04-02T00:36:09.811Z,87.63
2023-04-02T00:39:19.093Z,87.94
2023-04-02T00:42:21.359Z,87.58
2023-04-02T00:45:24.879Z,87.57
2023-04-02T00:48:48.903Z,87.53
2023-04-02T00:51:56.843Z,87.48
2023-04-02T00:55:12.849Z,87.39
2023-04-02T00:58:27.300Z,87.62
2023-04-02T01:01:39.003Z,87.50
2023-04-02T01:04:41.808Z,87.39
2023-04-02T01:08:02.614Z,88.19
2023-04-02T01:11:35.391Z,87.82
2023-04-02T01:14:58.944Z,87.61
2023-04-02T01:18:18.715Z,87.65
2023-04-02T01:21:35.300Z,87.66
2023-04-02T01:24:37.478Z,88.02
2023-04-02T01:27:46.613Z,87.85
2023-04-02T01:30:53.005Z,88.09
2023-04-02T01:34:03.043Z,88.01
2023-04-02T01:37:13.994Z,87.68
2023-04-02T01:40:18.797Z,87.76
2023-04-02T01:44:08.432Z,87.69
2023-04-02T01:47:13.542Z,87.37
2023-04-02T01:50:37.328Z,87.50
2023-04-02T01:53:42.546Z,87.96
2023-04-02T01:56:47.275Z,87.55
2023-04-02T01:59:49.526Z,87.51
2023-04-02T02:02:52.270Z,87.29
2023-04-02T02:05:56.983Z,87.15
2023-04-02T02:09:05.449Z,86.98
2023-04-02T02:12:22.917Z,87.04
2023-04-02T02:15:27.690Z,87.28
2023-04-02T02:18:30.172Z,87.08
2023-04-02T02:21:48.223Z,87.05
2023-04-02T02:24:50.745Z,87.43
2023-04-02T02:28:01.600Z,87.10
2023-04-02T02:31:24.296Z,86.75
2023-04-02T02:34:39.242Z,86.69
2023-04-02T02:37:46.545Z,86.52
2023-04-02T02:40:57.911Z,86.64
2023-04-02T02:44:14.041Z,86.36
2023-04-02T02:47:25.103Z,86.29
2023-04-02T02:50:31.838Z,86.26
2023-04-02T02:53:53.663Z,85.82
2023-04-02T02:57:01.661Z,85.41
2023-04-02T03:00:08.310Z,85.20
2023-04-02T03:03:26.397Z,85.13
2023-04-02T03:06:33.027Z,84.77
2023-04-02T03:09:51.776Z,84.43
2023-04-02T03:13:08.581Z,83.99
2023-04-02T03:16:23.705Z,83.88
2023-04-02T03:19:35.997Z,83.50
2023-04-02T03:23:02.676Z,82.77
2023-04-02T03:26:10.655Z,82.72
2023-04-02T03:29:22.315Z,82.55
2023-04-02T03:32:32.128Z,82.22
2023-04-02T03:35:46.614Z,81.98
2023-04-02T03:39:17.266Z,80.95
2023-04-02T03:42:28.069Z,81.00
2023-04-02T03:45:39.175Z,80.62
2023-04-02T03:48:54.720Z,80.29
2023-04-02T03:52:06.328Z,80.34
2023-04-02T03:55:20.118Z,80.07
2023-04-02T03:58:38.906Z,79.56
2023-04-02T04:01:57.555Z,79.37
2023-04-02T04:05:01.889Z,79.30
2023-04-02T04:08:08.103Z,79.44
2023-04-02T04:11:16.093Z,79.12
2023-04-02T04:14:32.343Z,78.87
2023-04-02T04:17:58.082Z,78.89
2023-04-02T04:21:30.125Z,78.02
2023-04-02T04:24:39.454Z,77.79
2023-04-02T04:27:48.610Z,77.45
2023-04-02T04:31:08.730Z,76.77
2023-04-02T04:34:22.670Z,76.31
2023-04-02T04:37:33.780Z,75.91
2023-04-02T04:40:45.363Z,75.00
2023-04-02T04:43:52.051Z,74.58
2023-04-02T04:47:02.526Z,73.43
2023-04-02T04:50:16.030Z,72.44
2023-04-02T04:53:22.697Z,72.47
2023-04-02T04:56:29.919Z,71.63
2023-04-02T05:00:23.154Z,70.75
2023-04-02T05:03:51.376Z,70.05
2023-04-02T05:07:03.793Z,70.07
2023-04-02T05:10:19.521Z,68.62
2023-04-02T05:13:32.923Z,68.95
2023-04-02T05:16:46.189Z,68.69
2023-04-02T05:20:09.966Z,67.77
2023-04-02T05:23:27.125Z,67.38
2023-04-02T05:26:37.623Z,66.08
2023-04-02T05:29:44.655Z,65.44
2023-04-02T05:33:01.277Z,64.58
2023-04-02T05:36:11.842Z,63.87
2023-04-02T05:39:24.787Z,63.30
2023-04-02T05:42:36.471Z,62.55
2023-04-02T05:45:54.885Z,61.32
2023-04-02T05:49:00.186Z,60.29
2023-04-02T05:52:06.961Z,59.67
2023-04-02T05:55:14.863Z,59.17
2023-04-02T05:58:36.335Z,58.79
2023-04-02T06:02:27.138Z,58.01
2023-04-02T06:05:38.136Z,57.72
2023-04-02T06:08:47.617Z,57.08
2023-04-02T06:12:24.529Z,55.84
2023-04-02T06:15:31.848Z,56.13
2023-04-02T06:18:40.808Z,55.97
2023-04-02T06:21:49.774Z,56.19
2023-04-02T06:25:12.096Z,55.95
2023-04-02T06:28:21.544Z,55.61
2023-04-02T06:31:52.422Z,55.50
2023-04-02T06:34:56.296Z,54.68
2023-04-02T06:38:06.989Z,54.53
2023-04-02T06:41:19.917Z,53.69
2023-04-02T06:44:38.130Z,51.38
2023-04-02T06:47:57.288Z,49.66
2023-04-02T06:51:18.277Z,49.96
2023-04-02T06:54:23.149Z,48.26
2023-04-02T06:57:32.891Z,47.76
2023-04-02T07:00:39.234Z,48.62
2023-04-02T07:03:43.276Z,48.92
2023-04-02T07:06:54.632Z,49.01
2023-04-02T07:09:59.311Z,48.80
2023-04-02T07:13:04.006Z,49.48
2023-04-02T07:16:06.555Z,49.41
2023-04-02T07:19:19.239Z,48.50
2023-04-02T07:22:22.317Z,48.11
2023-04-02T07:25:35.133Z,48.29
2023-04-02T07:28:37.234Z,47.10
2023-04-02T07:31:41.768Z,47.70
2023-04-02T07:34:43.598Z,47.32
2023-04-02T07:37:45.800Z,47.43
2023-04-02T07:40:50.457Z,47.28
2023-04-02T07:43:54.851Z,47.52
2023-04-02T07:46:56.690Z,48.08
2023-04-02T07:49:58.647Z,48.57
2023-04-02T07:53:01.147Z,48.79
2023-04-02T07:56:04.830Z,48.97
2023-04-02T07:59:06.953Z,49.00
2023-04-02T08:02:20.326Z,49.19
2023-04-02T08:05:22.672Z,48.95
2023-04-02T08:08:25.564Z,48.57
2023-04-02T08:11:27.783Z,48.26
2023-04-02T08:14:32.735Z,48.59
2023-04-02T08:17:34.863Z,48.46
2023-04-02T08:20:37.147Z,48.95
2023-04-02T08:23:39.083Z,48.40
2023-04-02T08:26:41.712Z,48.23
2023-04-02T08:29:44.454Z,48.10
2023-04-02T08:32:46.417Z,46.99
2023-04-02T08:35:49.393Z,46.91
2023-04-02T08:38:51.321Z,46.47
2023-04-02T08:41:53.128Z,45.06
2023-04-02T08:45:23.576Z,45.15
2023-04-02T08:48:28.070Z,43.68
2023-04-02T08:51:36.514Z,43.04
2023-04-02T08:54:38.480Z,43.31
2023-04-02T08:57:50.533Z,41.37
2023-04-02T09:00:55.991Z,41.40
2023-04-02T09:03:59.617Z,39.58
2023-04-02T09:07:01.805Z,39.17
2023-04-02T09:10:04.501Z,39.23
2023-04-02T09:13:13.926Z,37.82
2023-04-02T09:16:22.601Z,39.15
2023-04-02T09:19:44.661Z,39.52
2023-04-02T09:22:48.694Z,39.84
2023-04-02T09:26:03.680Z,39.77
2023-04-02T09:29:12.658Z,39.38
2023-04-02T09:32:22.320Z,40.26
2023-04-02T09:35:32.433Z,39.19
2023-04-02T09:38:35.521Z,38.42
2023-04-02T09:41:37.539Z,37.11
2023-04-02T09:44:39.405Z,37.24
2023-04-02T09:47:42.484Z,38.34
2023-04-02T09:50:44.501Z,38.51
2023-04-02T09:54:07.573Z,39.40
2023-04-02T09:57:28.163Z,40.21
2023-04-02T10:00:32.421Z,38.87
2023-04-02T10:03:35.077Z,39.54
2023-04-02T10:06:37.564Z,39.36
2023-04-02T10:09:48.569Z,39.59
2023-04-02T10:13:00.250Z,39.86
2023-04-02T10:16:07.517Z,40.59
2023-04-02T10:19:33.364Z,40.27
2023-04-02T10:22:35.234Z,40.92
2023-04-02T10:25:50.607Z,40.16
2023-04-02T10:29:12.843Z,41.14
2023-04-02T10:32:34.959Z,40.56
2023-04-02T10:35:43.233Z,40.63
2023-04-02T10:39:30.066Z,38.89
2023-04-02T10:42:42.373Z,37.14
2023-04-02T10:45:54.758Z,37.24
2023-04-02T10:49:15.580Z,38.89
2023-04-02T10:52:33.703Z,39.91
2023-04-02T10:55:43.276Z,40.33
2023-04-02T10:59:05.551Z,40.97
2023-04-02T11:02:38.969Z,39.94
2023-04-02T11:05:50.489Z,39.45
2023-04-02T11:08:58.860Z,38.29
2023-04-02T11:12:03.567Z,38.34
2023-04-02T11:15:19.829Z,38.86
2023-04-02T11:18:37.572Z,38.64
2023-04-02T11:21:54.931Z,38.84
2023-04-02T11:24:58.565Z,38.18
2023-04-02T11:28:27.222Z,37.38
2023-04-02T11:31:31.517Z,37.66
2023-04-02T11:34:42.980Z,36.18
2023-04-02T11:37:46.185Z,37.35
2023-04-02T11:40:55.197Z,37.36
2023-04-02T11:44:01.615Z,37.48
2023-04-02T11:47:26.746Z,37.90
2023-04-02T11:50:28.769Z,38.27
2023-04-02T11:53:34.545Z,38.08
2023-04-02T11:56:49.121Z,38.35
2023-04-02T12:00:18.495Z,38.24
2023-04-02T12:03:56.701Z,38.30
2023-04-02T12:07:18.463Z,36.83
2023-04-02T12:10:23.332Z,37.11
2023-04-02T12:13:40.605Z,36.72
2023-04-02T12:16:42.676Z,37.18
2023-04-02T12:19:53.730Z,37.25
2023-04-02T12:22:58.707Z,37.17
2023-04-02T12:26:08.954Z,36.35
2023-04-02T12:29:27.429Z,36.72
2023-04-02T12:32:33.493Z,36.83
2023-04-02T12:35:36.563Z,37.49
2023-04-02T12:38:53.877Z,37.13
2023-04-02T12:41:56.507Z,37.19
2023-04-02T12:44:58.903Z,36.27
2023-04-02T12:48:09.114Z,36.42
2023-04-02T12:51:11.341Z,36.87
2023-04-02T12:54:18.552Z,36.84
2023-04-02T12:57:26.465Z,36.43
2023-04-02T13:00:31.167Z,37.26
2023-04-02T13:03:40.713Z,37.07
2023-04-02T13:06:52.150Z,36.94
2023-04-02T13:09:57.026Z,36.71
2023-04-02T13:13:01.623Z,37.16
2023-04-02T13:16:07.552Z,36.60
2023-04-02T13:19:33.683Z,36.52
2023-04-02T13:22:35.753Z,37.07
2023-04-02T13:25:37.756Z,37.52
2023-04-02T13:28:39.691Z,37.55
2023-04-02T13:31:41.741Z,37.58
2023-04-02T13:34:43.760Z,37.43
2023-04-02T13:37:47.809Z,37.64
2023-04-02T13:40:49.704Z,37.56
2023-04-02T13:43:53.011Z,37.85
2023-04-02T13:46:57.725Z,38.45
2023-04-02T13:49:59.533Z,38.35
2023-04-02T13:53:09.700Z,38.42
2023-04-02T13:56:14.827Z,38.64
2023-04-02T13:59:16.785Z,39.36
2023-04-02T14:02:25.528Z,40.20
2023-04-02T14:05:46.903Z,40.36
2023-04-02T14:08:48.683Z,40.27
2023-04-02T14:12:04.735Z,39.99
2023-04-02T14:15:41.137Z,39.38
2023-04-02T14:19:01.700Z,39.88
2023-04-02T14:22:14.741Z,40.07
2023-04-02T14:25:37.709Z,40.38
2023-04-02T14:29:10.546Z,40.30
2023-04-02T14:32:21.035Z,40.56
2023-04-02T14:35:36.651Z,40.51
2023-04-02T14:38:44.954Z,40.41
2023-04-02T14:41:57.092Z,40.96
2023-04-02T14:45:12.717Z,41.56
2023-04-02T14:48:21.443Z,40.85
2023-04-02T14:51:33.346Z,40.71
2023-04-02T14:54:45.460Z,40.78
2023-04-02T14:57:53.633Z,40.61
2023-04-02T15:01:00.734Z,41.23
2023-04-02T15:04:12.825Z,41.17
2023-04-02T15:07:22.243Z,41.21
2023-04-02T15:10:52.348Z,41.47
2023-04-02T15:14:05.417Z,41.60
2023-04-02T15:17:11.433Z,41.87
2023-04-02T15:20:16.159Z,42.17
2023-04-02T15:23:31.217Z,42.46
2023-04-02T15:26:48.411Z,43.09
2023-04-02T15:29:51.301Z,43.39
2023-04-02T15:32:59.799Z,43.55
2023-04-02T15:36:19.971Z,43.79
2023-04-02T15:39:21.921Z,44.02
2023-04-02T15:42:33.172Z,43.81
2023-04-02T15:45:53.613Z,43.82
2023-04-02T15:49:20.449Z,44.31
2023-04-02T15:52:50.117Z,44.31
2023-04-02T15:56:23.049Z,44.70
2023-04-02T15:59:47.324Z,44.59
2023-04-02T16:03:02.674Z,44.54
2023-04-02T16:06:25.443Z,45.01
2023-04-02T16:09:30.942Z,45.00
2023-04-02T16:12:34.947Z,44.93
2023-04-02T16:15:46.141Z,45.25
2023-04-02T16:18:56.862Z,45.26
2023-04-02T16:22:05.670Z,45.18
2023-04-02T16:25:16.550Z,45.47
2023-04-02T16:28:22.977Z,45.63
2023-04-02T16:31:57.766Z,45.66
2023-04-02T16:38:54.902Z,46.09
2023-04-02T16:42:11.704Z,45.92
2023-04-02T16:45:19.726Z,46.27
2023-04-02T16:48:42.786Z,46.10
2023-04-02T16:52:04.940Z,46.03
2023-04-02T16:55:32.867Z,45.87
2023-04-02T16:58:43.816Z,46.41
2023-04-02T17:01:59.840Z,47.03
2023-04-02T17:05:29.459Z,48.20
2023-04-02T17:08:42.000Z,48.23
2023-04-02T17:12:01.290Z,48.16
2023-04-02T17:15:26.620Z,48.59
2023-04-02T17:18:34.028Z,49.08
2023-04-02T17:21:36.085Z,49.04
2023-04-02T17:25:04.746Z,49.20
2023-04-02T17:28:15.069Z,48.90
2023-04-02T17:31:30.943Z,48.22
2023-04-02T17:34:33.090Z,48.52
2023-04-02T17:38:00.394Z,48.47
2023-04-02T17:41:17.663Z,49.48
2023-04-02T17:44:42.755Z,49.04
2023-04-02T17:47:47.227Z,49.40
2023-04-02T17:51:11.594Z,50.18
2023-04-02T17:54:37.172Z,50.54
2023-04-02T17:58:11.269Z,50.55
2023-04-02T18:01:34.823Z,50.94
2023-04-02T18:04:58.267Z,51.08
2023-04-02T18:08:45.683Z,51.34
2023-04-02T18:12:29.535Z,51.86
2023-04-02T18:16:01.436Z,51.75
2023-04-02T18:19:12.030Z,51.58
2023-04-02T18:22:37.511Z,51.50
2023-04-02T18:25:50.430Z,51.35
2023-04-02T18:28:58.017Z,51.30
2023-04-02T18:32:27.368Z,51.59
2023-04-02T18:35:35.778Z,51.34
2023-04-02T18:38:54.025Z,51.09
2023-04-02T18:42:19.081Z,51.70
2023-04-02T18:45:35.493Z,52.11
2023-04-02T18:48:52.079Z,52.58
2023-04-02T18:52:11.323Z,52.75
2023-04-02T18:55:20.995Z,53.60
2023-04-02T18:58:29.828Z,54.72
2023-04-02T19:05:02.883Z,55.43
2023-04-02T19:08:28.815Z,55.84
2023-04-02T19:11:31.638Z,55.73
2023-04-02T19:14:33.453Z,56.67
2023-04-02T19:17:45.067Z,56.69
2023-04-02T19:20:56.259Z,57.05
2023-04-02T19:24:16.449Z,57.81
2023-04-02T19:27:28.811Z,58.09
2023-04-02T19:30:49.966Z,59.01
2023-04-02T19:34:06.791Z,59.77
2023-04-02T19:37:13.778Z,60.55
2023-04-02T19:40:33.604Z,62.40
2023-04-02T19:43:38.676Z,63.03
2023-04-02T19:46:42.692Z,63.65
2023-04-02T19:49:45.058Z,65.10
2023-04-02T19:52:46.995Z,65.97
2023-04-02T19:55:51.015Z,66.66
2023-04-02T19:58:52.932Z,67.40
2023-04-02T20:01:54.845Z,68.55
2023-04-02T20:04:56.703Z,68.94
2023-04-02T20:08:00.136Z,69.72
2023-04-02T20:11:05.938Z,70.41
2023-04-02T20:14:07.839Z,70.83
2023-04-02T20:17:12.376Z,71.40
2023-04-02T20:20:16.983Z,72.14
2023-04-02T20:23:19.137Z,72.53
2023-04-02T20:26:23.377Z,72.88
2023-04-02T20:29:28.124Z,73.85
2023-04-02T20:32:30.187Z,73.56
2023-04-02T20:35:34.592Z,73.51
2023-04-02T20:38:39.872Z,74.15
2023-04-02T20:41:44.447Z,74.57
2023-04-02T20:44:46.438Z,74.99
2023-04-02T20:47:56.060Z,75.21
2023-04-02T20:50:59.821Z,75.86
2023-04-02T20:54:01.918Z,76.37
2023-04-02T20:57:05.365Z,77.09
2023-04-02T21:00:08.333Z,77.41
2023-04-02T21:03:10.427Z,78.86
2023-04-02T21:06:14.315Z,77.76
2023-04-02T21:09:19.594Z,77.70
2023-04-02T21:12:21.541Z,78.70
2023-04-02T21:15:23.430Z,79.17
2023-04-02T21:18:26.188Z,79.44
2023-04-02T21:21:28.809Z,79.81
2023-04-02T21:24:30.754Z,79.97
2023-04-02T21:27:32.624Z,80.51
2023-04-02T21:30:34.485Z,80.85
2023-04-02T21:33:39.437Z,80.93
2023-04-02T21:36:45.639Z,81.01
2023-04-02T21:39:47.433Z,81.52
2023-04-02T21:42:52.929Z,81.64
2023-04-02T21:46:02.028Z,81.96
2023-04-02T21:49:05.370Z,82.55
2023-04-02T21:52:07.366Z,82.35
2023-04-02T21:55:09.450Z,82.65
2023-04-02T21:58:11.309Z,83.11
2023-04-02T22:01:24.342Z,83.04
2023-04-02T22:04:30.758Z,83.16
2023-04-02T22:07:32.746Z,83.00
2023-04-02T22:10:44.079Z,83.06
2023-04-02T22:13:48.067Z,82.76
2023-04-02T22:16:50.164Z,82.80
2023-04-02T22:19:54.656Z,82.94
2023-04-02T22:22:56.625Z,82.77
2023-04-02T22:25:59.818Z,82.61
2023-04-02T22:29:02.948Z,82.51
2023-04-02T22:32:04.939Z,82.53
2023-04-02T22:35:09.339Z,82.71
2023-04-02T22:38:11.314Z,82.82
2023-04-02T22:41:16.208Z,82.89
2023-04-02T22:44:18.065Z,82.64
2023-04-02T22:47:19.882Z,82.73
2023-04-02T22:50:24.751Z,82.68
2023-04-02T22:53:26.637Z,82.51
2023-04-02T22:56:32.070Z,82.52
2023-04-02T22:59:34.261Z,82.41
2023-04-02T23:02:36.257Z,82.31
2023-04-02T23:05:38.217Z,82.11
2023-04-02T23:08:40.934Z,82.33
2023-04-02T23:11:45.174Z,82.04
2023-04-02T23:14:47.509Z,82.09
2023-04-02T23:17:49.461Z,81.82
2023-04-02T23:20:54.369Z,81.81
2023-04-02T23:23:56.388Z,81.57
2023-04-02T23:26:58.315Z,81.41
2023-04-02T23:30:00.168Z,81.51
2023-04-02T23:33:03.579Z,81.26
2023-04-02T23:36:10.873Z,81.50
2023-04-02T23:39:13.996Z,80.81
2023-04-02T23:42:16.148Z,81.01
2023-04-02T23:45:20.272Z,80.92
2023-04-02T23:48:22.147Z,80.62
2023-04-02T23:51:24.845Z,80.62
2023-04-02T23:54:26.890Z,80.43
2023-04-02T23:57:28.743Z,80.37
